createdAt,value
2022-11-25T00:00:33.370Z,28.93
2022-11-25T00:03:18.469Z,27.37
2022-11-25T00:06:14.470Z,33.23
2022-11-25T00:09:08.217Z,33.77
2022-11-25T00:11:53.630Z,34.17
2022-11-25T00:14:38.519Z,33.20
2022-11-25T00:17:23.556Z,29.87
2022-11-25T00:20:09.360Z,28.23
2022-11-25T00:22:54.475Z,30.77
2022-11-25T00:25:39.753Z,29.77
2022-11-25T00:28:30.240Z,28.13
2022-11-25T00:31:21.610Z,30.17
2022-11-25T00:34:12.281Z,30.27
2022-11-25T00:36:57.426Z,28.70
2022-11-25T00:39:42.580Z,30.67
2022-11-25T00:42:27.876Z,37.17
2022-11-25T00:45:12.948Z,29.03
2022-11-25T00:47:57.757Z,29.67
2022-11-25T00:50:42.697Z,24.87
2022-11-25T00:53:30.463Z,24.17
2022-11-25T00:56:15.298Z,28.93
2022-11-25T00:59:00.258Z,27.13
2022-11-25T01:01:46.697Z,24.87
2022-11-25T01:04:32.395Z,26.13
2022-11-25T01:07:17.876Z,27.40
2022-11-25T01:10:03.471Z,25.63
2022-11-25T01:12:48.760Z,30.83
2022-11-25T01:15:37.325Z,23.47
2022-11-25T01:18:22.850Z,25.23
2022-11-25T01:21:10.569Z,24.27
2022-11-25T01:23:56.049Z,27.27
2022-11-25T01:26:42.063Z,25.83
2022-11-25T01:29:27.022Z,26.07
2022-11-25T01:32:12.224Z,24.63
2022-11-25T01:34:57.437Z,27.37
2022-11-25T01:37:42.421Z,23.67
2022-11-25T01:40:27.496Z,22.30
2022-11-25T01:43:15.688Z,24.87
2022-11-25T01:46:31.105Z,28.70
2022-11-25T01:49:36.848Z,21.77
2022-11-25T01:52:42.968Z,23.20
2022-11-25T01:55:33.394Z,24.17
2022-11-25T01:58:24.500Z,23.27
2022-11-25T02:01:10.215Z,23.00
2022-11-25T02:03:58.508Z,23.17
2022-11-25T02:06:53.485Z,25.43
2022-11-25T02:09:42.211Z,23.23
2022-11-25T02:12:28.709Z,22.17
2022-11-25T02:15:15.248Z,24.30
2022-11-25T02:18:00.279Z,26.30
2022-11-25T02:20:45.523Z,22.17
2022-11-25T02:23:43.471Z,24.70
2022-11-25T02:26:28.678Z,20.03
2022-11-25T02:29:14.074Z,24.63
2022-11-25T02:31:59.365Z,19.90
2022-11-25T02:34:48.143Z,22.43
2022-11-25T02:37:33.671Z,22.23
2022-11-25T02:40:18.874Z,21.67
2022-11-25T02:43:04.100Z,20.57
2022-11-25T02:45:56.772Z,26.03
2022-11-25T02:51:47.866Z,23.73
2022-11-25T02:54:32.794Z,22.83
2022-11-25T02:57:18.316Z,19.87
2022-11-25T03:00:04.896Z,22.17
2022-11-25T03:02:53.230Z,24.17
2022-11-25T03:05:38.783Z,21.30
2022-11-25T03:08:23.907Z,20.97
2022-11-25T03:11:09.156Z,23.83
2022-11-25T03:13:54.699Z,22.83
2022-11-25T03:16:40.097Z,23.40
2022-11-25T03:19:25.656Z,24.13
2022-11-25T03:22:10.784Z,20.67
2022-11-25T03:24:56.244Z,20.30
2022-11-25T03:27:42.175Z,19.40
2022-11-25T03:30:28.700Z,20.73
2022-11-25T03:33:13.592Z,24.87
2022-11-25T03:35:58.737Z,22.73
2022-11-25T03:38:44.358Z,22.60
2022-11-25T03:41:29.674Z,21.47
2022-11-25T03:44:15.008Z,19.07
2022-11-25T03:47:00.277Z,22.33
2022-11-25T03:49:45.596Z,20.70
2022-11-25T03:52:30.928Z,22.47
2022-11-25T03:55:15.813Z,19.27
2022-11-25T03:58:01.328Z,22.60
2022-11-25T04:00:46.133Z,22.87
2022-11-25T04:03:31.509Z,21.33
2022-11-25T04:06:16.702Z,19.10
2022-11-25T04:09:01.845Z,24.37
2022-11-25T04:11:46.811Z,18.97
2022-11-25T04:14:32.197Z,21.17
2022-11-25T04:17:17.603Z,20.97
2022-11-25T04:20:04.016Z,21.70
2022-11-25T04:22:48.904Z,22.30
2022-11-25T04:25:34.802Z,18.17
2022-11-25T04:28:19.694Z,21.07
2022-11-25T04:31:08.994Z,20.93
2022-11-25T04:33:54.191Z,16.60
2022-11-25T04:36:39.058Z,21.97
2022-11-25T04:39:24.105Z,19.37
2022-11-25T04:42:09.240Z,22.37
2022-11-25T04:45:20.946Z,20.90
2022-11-25T04:47:59.829Z,20.67
2022-11-25T04:50:45.311Z,25.93
2022-11-25T04:53:30.443Z,21.03
2022-11-25T04:56:19.346Z,22.20
2022-11-25T04:59:04.360Z,21.63
2022-11-25T05:01:52.094Z,18.53
2022-11-25T05:04:37.472Z,20.30
2022-11-25T05:07:26.326Z,20.47
2022-11-25T05:10:11.695Z,24.47
2022-11-25T05:12:56.875Z,22.67
2022-11-25T05:15:41.684Z,21.87
2022-11-25T05:18:26.499Z,22.23
2022-11-25T05:21:11.350Z,22.70
2022-11-25T05:23:56.697Z,20.73
2022-11-25T05:26:41.663Z,21.57
2022-11-25T05:29:26.686Z,24.27
2022-11-25T05:32:12.231Z,26.40
2022-11-25T05:34:57.163Z,19.27
2022-11-25T05:37:42.525Z,26.40
2022-11-25T05:40:27.383Z,21.70
2022-11-25T05:43:12.425Z,24.13
2022-11-25T05:45:57.477Z,25.80
2022-11-25T05:48:42.468Z,23.23
2022-11-25T05:51:28.364Z,23.77
2022-11-25T05:54:14.067Z,25.83
2022-11-25T05:56:59.314Z,22.57
2022-11-25T05:59:44.408Z,20.03
2022-11-25T06:02:29.544Z,25.20
2022-11-25T06:05:15.008Z,22.63
2022-11-25T06:08:00.236Z,24.70
2022-11-25T06:10:45.785Z,23.97
2022-11-25T06:13:30.808Z,25.53
2022-11-25T06:16:18.707Z,25.00
2022-11-25T06:19:04.706Z,23.77
2022-11-25T06:21:49.783Z,23.67
2022-11-25T06:24:35.095Z,24.93
2022-11-25T06:27:20.671Z,24.57
2022-11-25T06:30:06.622Z,25.67
2022-11-25T06:32:51.934Z,24.23
2022-11-25T06:35:40.276Z,29.03
2022-11-25T06:38:28.253Z,23.47
2022-11-25T06:41:14.042Z,22.57
2022-11-25T06:44:02.152Z,24.07
2022-11-25T06:46:47.530Z,24.17
2022-11-25T06:49:32.942Z,25.87
2022-11-25T06:52:17.852Z,24.97
2022-11-25T06:55:03.803Z,25.03
2022-11-25T06:57:48.736Z,25.37
2022-11-25T07:00:34.328Z,30.97
2022-11-25T07:03:21.448Z,21.17
2022-11-25T07:06:07.045Z,24.67
2022-11-25T07:08:52.969Z,26.53
2022-11-25T07:11:40.011Z,27.53
2022-11-25T07:14:25.523Z,27.77
2022-11-25T07:17:12.359Z,26.63
2022-11-25T07:19:57.785Z,26.33
2022-11-25T07:22:42.812Z,25.63
2022-11-25T07:25:30.816Z,27.07
2022-11-25T07:28:16.034Z,23.90
2022-11-25T07:34:13.787Z,31.77
2022-11-25T07:36:59.259Z,24.13
2022-11-25T07:39:44.585Z,25.57
2022-11-25T07:42:29.431Z,25.63
2022-11-25T07:45:15.008Z,26.00
2022-11-25T07:48:02.703Z,28.87
2022-11-25T07:50:48.340Z,23.97
2022-11-25T07:53:33.291Z,25.33
2022-11-25T07:56:19.207Z,23.97
2022-11-25T07:59:05.111Z,26.07
2022-11-25T08:01:52.720Z,27.43
2022-11-25T08:04:37.881Z,29.93
2022-11-25T08:07:23.369Z,34.63
2022-11-25T08:10:09.238Z,31.30
2022-11-25T08:12:54.393Z,28.67
2022-11-25T08:15:39.593Z,25.50
2022-11-25T08:18:25.354Z,28.13
2022-11-25T08:21:12.702Z,26.37
2022-11-25T08:23:58.061Z,26.77
2022-11-25T08:26:43.816Z,24.40
2022-11-25T08:29:31.174Z,23.80
2022-11-25T08:32:19.518Z,21.33
2022-11-25T08:35:06.968Z,24.37
2022-11-25T08:37:52.368Z,25.43
2022-11-25T08:40:37.610Z,23.67
2022-11-25T08:43:29.055Z,21.00
2022-11-25T08:46:21.165Z,19.90
2022-11-25T08:49:08.515Z,23.20
2022-11-25T08:51:54.051Z,19.87
2022-11-25T08:54:38.947Z,20.43
2022-11-25T08:57:24.258Z,23.23
2022-11-25T09:00:10.564Z,20.27
2022-11-25T09:02:55.631Z,23.17
2022-11-25T09:05:43.189Z,25.13
2022-11-25T09:08:28.849Z,24.33
2022-11-25T09:11:14.966Z,22.03
2022-11-25T09:13:59.972Z,23.13
2022-11-25T09:16:45.368Z,19.57
2022-11-25T09:19:30.738Z,21.97
2022-11-25T09:22:16.161Z,22.93
2022-11-25T09:25:01.668Z,23.73
2022-11-25T09:27:47.662Z,17.33
2022-11-25T09:30:33.115Z,21.80
2022-11-25T09:33:19.320Z,20.30
2022-11-25T09:36:04.632Z,21.80
2022-11-25T09:38:50.735Z,21.93
2022-11-25T09:42:01.536Z,21.60
2022-11-25T09:45:02.993Z,20.30
2022-11-25T09:48:26.810Z,20.43
2022-11-25T09:51:22.609Z,19.63
2022-11-25T09:54:32.592Z,21.40
2022-11-25T09:57:29.893Z,19.90
2022-11-25T10:00:20.542Z,23.10
2022-11-25T10:03:43.323Z,20.57
2022-11-25T10:06:33.026Z,18.33
2022-11-25T10:09:23.786Z,18.60
2022-11-25T10:12:38.423Z,17.93
2022-11-25T10:15:32.556Z,23.73
2022-11-25T10:18:32.207Z,18.60
2022-11-25T10:21:17.604Z,20.20
2022-11-25T10:24:04.607Z,21.90
2022-11-25T10:26:57.224Z,18.90
2022-11-25T10:29:43.256Z,19.40
2022-11-25T10:32:36.827Z,19.23
2022-11-25T10:35:30.074Z,17.40
2022-11-25T10:38:24.272Z,18.07
2022-11-25T10:41:15.659Z,23.50
2022-11-25T10:44:01.052Z,15.97
2022-11-25T10:47:16.829Z,19.53
2022-11-25T10:50:07.954Z,20.97
2022-11-25T10:52:53.373Z,16.23
2022-11-25T10:56:04.224Z,17.87
2022-11-25T10:58:49.742Z,16.70
2022-11-25T11:01:34.641Z,17.33
2022-11-25T11:04:20.796Z,19.67
2022-11-25T11:07:09.384Z,18.67
2022-11-25T11:10:06.928Z,17.73
2022-11-25T11:13:03.354Z,22.77
2022-11-25T11:15:48.958Z,19.13
2022-11-25T11:18:37.087Z,19.13
2022-11-25T11:21:29.997Z,18.50
2022-11-25T11:24:33.119Z,18.03
2022-11-25T11:27:25.000Z,16.60
2022-11-25T11:30:10.487Z,21.80
2022-11-25T11:33:02.404Z,19.33
2022-11-25T11:36:02.110Z,14.77
2022-11-25T11:38:54.679Z,18.03
2022-11-25T11:41:45.481Z,17.10
2022-11-25T11:44:56.863Z,17.50
2022-11-25T11:48:25.440Z,19.27
2022-11-25T11:51:25.544Z,19.40
2022-11-25T11:54:18.499Z,18.23
2022-11-25T11:57:21.071Z,17.30
2022-11-25T12:00:11.930Z,17.53
2022-11-25T12:03:16.863Z,19.10
2022-11-25T12:06:05.653Z,16.47
2022-11-25T12:08:59.087Z,18.17
2022-11-25T12:11:49.907Z,19.87
2022-11-25T12:14:35.414Z,23.27
2022-11-25T12:17:30.544Z,17.53
2022-11-25T12:20:17.484Z,21.17
2022-11-25T12:23:09.719Z,19.97
2022-11-25T12:26:06.088Z,18.87
2022-11-25T12:28:57.969Z,18.87
2022-11-25T12:31:56.254Z,19.37
2022-11-25T12:34:48.885Z,19.00
2022-11-25T12:37:39.425Z,16.50
2022-11-25T12:40:31.256Z,18.83
2022-11-25T12:43:34.750Z,18.60
2022-11-25T12:46:43.210Z,16.77
2022-11-25T12:49:32.653Z,19.00
2022-11-25T12:52:35.996Z,18.97
2022-11-25T12:55:26.543Z,18.67
2022-11-25T12:58:41.872Z,19.50
2022-11-25T13:01:48.352Z,19.67
2022-11-25T13:04:52.066Z,16.83
2022-11-25T13:08:11.215Z,18.07
2022-11-25T13:11:47.918Z,17.83
2022-11-25T13:15:18.195Z,18.37
2022-11-25T13:18:20.179Z,18.13
2022-11-25T13:21:16.125Z,21.20
2022-11-25T13:24:01.596Z,18.27
2022-11-25T13:26:50.236Z,16.40
2022-11-25T13:29:41.922Z,19.00
2022-11-25T13:32:38.547Z,19.10
2022-11-25T13:35:31.422Z,17.43
2022-11-25T13:38:37.565Z,17.20
2022-11-25T13:41:48.005Z,17.60
2022-11-25T13:44:46.466Z,19.07
2022-11-25T13:47:37.583Z,17.27
2022-11-25T13:50:36.823Z,20.13
2022-11-25T13:53:35.737Z,16.10
2022-11-25T13:56:20.647Z,18.10
2022-11-25T13:59:11.605Z,19.70
2022-11-25T14:02:31.000Z,18.83
2022-11-25T14:05:28.172Z,20.57
2022-11-25T14:08:35.034Z,17.40
2022-11-25T14:11:38.685Z,21.30
2022-11-25T14:14:51.765Z,22.27
2022-11-25T14:17:49.033Z,20.27
2022-11-25T14:20:46.377Z,20.30
2022-11-25T14:23:49.637Z,20.10
2022-11-25T14:26:49.624Z,20.70
2022-11-25T14:29:43.465Z,20.33
2022-11-25T14:32:35.401Z,23.07
2022-11-25T14:35:26.903Z,22.93
2022-11-25T14:38:25.007Z,22.67
2022-11-25T14:41:47.660Z,25.30
2022-11-25T14:44:52.709Z,23.57
2022-11-25T14:47:39.317Z,22.83
2022-11-25T14:50:40.774Z,24.30
2022-11-25T14:53:27.654Z,25.63
2022-11-25T14:56:14.823Z,23.20
2022-11-25T14:59:01.095Z,27.23
2022-11-25T15:01:54.745Z,25.77
2022-11-25T15:04:41.434Z,24.00
2022-11-25T15:07:31.072Z,22.33
2022-11-25T15:10:51.640Z,22.57
2022-11-25T15:13:45.726Z,26.33
2022-11-25T15:16:36.835Z,24.23
2022-11-25T15:19:30.608Z,23.17
2022-11-25T15:22:23.402Z,21.23
2022-11-25T15:25:15.122Z,22.57
2022-11-25T15:28:00.532Z,24.40
2022-11-25T15:31:19.939Z,25.63
2022-11-25T15:34:13.472Z,22.97
2022-11-25T15:37:01.911Z,23.17
2022-11-25T15:39:46.973Z,21.73
2022-11-25T15:42:33.963Z,22.50
2022-11-25T15:45:21.374Z,26.50
2022-11-25T15:48:06.896Z,24.27
2022-11-25T15:50:52.221Z,22.63
2022-11-25T15:53:37.721Z,23.43
2022-11-25T15:56:26.393Z,27.97
2022-11-25T15:59:51.353Z,27.33
2022-11-25T16:02:38.102Z,26.27
2022-11-25T16:05:35.645Z,24.70
2022-11-25T16:08:30.274Z,28.87
2022-11-25T16:11:18.487Z,26.90
2022-11-25T16:14:26.800Z,27.10
2022-11-25T16:17:13.276Z,28.40
2022-11-25T16:19:58.484Z,28.80
2022-11-25T16:22:43.883Z,24.47
2022-11-25T16:25:29.272Z,28.97
2022-11-25T16:28:22.810Z,30.40
2022-11-25T16:31:15.912Z,28.77
2022-11-25T16:34:13.196Z,27.87
2022-11-25T16:36:58.144Z,25.93
2022-11-25T16:39:46.324Z,30.57
2022-11-25T16:42:33.684Z,33.07
2022-11-25T16:45:27.157Z,30.80
2022-11-25T16:48:16.899Z,31.37
2022-11-25T16:51:02.406Z,27.27
2022-11-25T16:53:48.125Z,25.90
2022-11-25T16:56:36.528Z,37.00
2022-11-25T16:59:36.758Z,34.67
2022-11-25T17:02:22.991Z,31.23
2022-11-25T17:05:26.539Z,27.03
2022-11-25T17:08:12.698Z,29.43
2022-11-25T17:10:59.392Z,29.40
2022-11-25T17:13:47.952Z,37.13
2022-11-25T17:16:33.389Z,28.87
2022-11-25T17:19:18.499Z,35.80
2022-11-25T17:22:13.367Z,32.57
2022-11-25T17:24:59.913Z,31.73
2022-11-25T17:27:45.425Z,27.43
2022-11-25T17:30:30.674Z,31.87
2022-11-25T17:33:19.337Z,31.57
2022-11-25T17:36:05.830Z,29.03
2022-11-25T17:38:50.841Z,32.93
2022-11-25T17:41:40.861Z,28.50
2022-11-25T17:44:29.107Z,28.10
2022-11-25T17:47:16.554Z,32.50
2022-11-25T17:50:01.892Z,35.33
2022-11-25T17:52:47.763Z,31.23
2022-11-25T17:58:49.096Z,56.17
2022-11-25T18:01:34.604Z,30.40
2022-11-25T18:04:24.846Z,29.40
2022-11-25T18:07:10.832Z,32.33
2022-11-25T18:09:56.251Z,28.83
2022-11-25T18:12:43.209Z,28.70
2022-11-25T18:15:31.333Z,28.03
2022-11-25T18:18:22.910Z,34.93
2022-11-25T18:21:09.176Z,34.60
2022-11-25T18:23:54.311Z,30.17
2022-11-25T18:26:46.955Z,30.20
2022-11-25T18:29:32.581Z,32.13
2022-11-25T18:32:17.486Z,33.17
2022-11-25T18:35:05.766Z,35.23
2022-11-25T18:37:51.313Z,39.67
2022-11-25T18:40:39.724Z,33.70
2022-11-25T18:43:26.944Z,36.57
2022-11-25T18:46:13.858Z,32.97
2022-11-25T18:48:59.090Z,41.27
2022-11-25T18:51:44.375Z,34.20
2022-11-25T18:54:29.524Z,29.83
2022-11-25T18:57:15.273Z,35.27
2022-11-25T19:00:31.708Z,33.90
2022-11-25T19:03:16.751Z,33.63
2022-11-25T19:06:02.253Z,31.37
2022-11-25T19:08:53.782Z,32.63
2022-11-25T19:11:49.429Z,40.17
2022-11-25T19:14:39.755Z,34.63
2022-11-25T19:17:25.367Z,32.17
2022-11-25T19:20:18.707Z,37.17
2022-11-25T19:23:21.864Z,31.53
2022-11-25T19:26:14.375Z,40.23
2022-11-25T19:29:05.756Z,36.60
2022-11-25T19:31:52.089Z,35.47
2022-11-25T19:34:41.106Z,35.57
2022-11-25T19:37:26.186Z,36.33
2022-11-25T19:40:20.070Z,37.93
2022-11-25T19:43:05.159Z,35.53
2022-11-25T19:45:50.633Z,40.60
2022-11-25T19:48:37.712Z,37.37
2022-11-25T19:51:25.122Z,40.37
2022-11-25T19:54:15.414Z,39.87
2022-11-25T19:57:00.528Z,34.70
2022-11-25T19:59:46.466Z,38.00
2022-11-25T20:02:31.799Z,35.27
2022-11-25T20:05:20.566Z,38.87
2022-11-25T20:08:05.935Z,32.60
2022-11-25T20:10:52.502Z,37.03
2022-11-25T20:13:37.736Z,33.27
2022-11-25T20:16:28.099Z,37.57
2022-11-25T20:19:18.001Z,35.63
2022-11-25T20:22:03.711Z,37.77
2022-11-25T20:24:48.875Z,61.60
2022-11-25T20:27:35.654Z,33.33
2022-11-25T20:30:28.612Z,34.67
2022-11-25T20:33:17.731Z,33.27
2022-11-25T20:36:19.511Z,33.80
2022-11-25T20:39:07.417Z,31.17
2022-11-25T20:41:52.765Z,35.97
2022-11-25T20:44:38.718Z,31.83
2022-11-25T20:47:24.035Z,38.73
2022-11-25T20:50:12.542Z,38.30
2022-11-25T20:52:57.616Z,40.03
2022-11-25T20:55:43.550Z,39.67
2022-11-25T20:58:31.132Z,39.40
2022-11-25T21:01:17.164Z,34.80
2022-11-25T21:04:02.212Z,46.80
2022-11-25T21:06:49.581Z,42.77
2022-11-25T21:09:35.708Z,42.20
2022-11-25T21:12:21.236Z,39.60
2022-11-25T21:15:15.255Z,40.23
2022-11-25T21:18:00.387Z,42.17
2022-11-25T21:20:46.439Z,42.57
2022-11-25T21:23:37.326Z,36.13
2022-11-25T21:26:26.499Z,40.93
2022-11-25T21:29:16.919Z,44.43
2022-11-25T21:32:02.391Z,46.50
2022-11-25T21:34:47.864Z,41.57
2022-11-25T21:37:35.251Z,45.87
2022-11-25T21:40:40.520Z,44.07
2022-11-25T21:43:46.147Z,42.33
2022-11-25T21:46:31.162Z,45.67
2022-11-25T21:49:16.420Z,42.80
2022-11-25T21:52:01.978Z,44.33
2022-11-25T21:54:47.416Z,42.17
2022-11-25T21:57:34.598Z,42.73
2022-11-25T22:00:25.316Z,39.67
2022-11-25T22:03:16.058Z,41.67
2022-11-25T22:06:01.352Z,39.20
2022-11-25T22:08:46.804Z,35.47
2022-11-25T22:11:35.478Z,33.60
2022-11-25T22:14:25.038Z,54.07
2022-11-25T22:17:17.301Z,39.63
2022-11-25T22:20:03.360Z,51.13
2022-11-25T22:22:50.652Z,52.77
2022-11-25T22:25:35.596Z,51.23
2022-11-25T22:28:23.717Z,54.40
2022-11-25T22:31:12.479Z,62.23
2022-11-25T22:33:57.969Z,55.33
2022-11-25T22:36:46.750Z,62.43
2022-11-25T22:39:31.677Z,55.63
2022-11-25T22:42:26.441Z,56.07
2022-11-25T22:45:24.505Z,64.67
2022-11-25T22:48:18.252Z,56.53
2022-11-25T22:51:04.187Z,55.40
2022-11-25T22:53:49.622Z,67.07
2022-11-25T22:56:34.858Z,57.40
2022-11-25T22:59:23.286Z,58.23
2022-11-25T23:02:32.494Z,60.43
2022-11-25T23:05:30.593Z,57.87
2022-11-25T23:08:21.300Z,62.20
2022-11-25T23:11:07.174Z,68.43
2022-11-25T23:13:52.578Z,68.43
2022-11-25T23:16:38.882Z,63.23
2022-11-25T23:19:24.146Z,72.90
2022-11-25T23:22:11.350Z,69.93
2022-11-25T23:24:56.635Z,62.67
2022-11-25T23:27:42.144Z,73.27
2022-11-25T23:30:27.269Z,72.60
2022-11-25T23:33:19.062Z,82.63
2022-11-25T23:36:09.056Z,70.60
2022-11-25T23:38:57.188Z,77.43
2022-11-25T23:41:42.398Z,60.10
2022-11-25T23:44:30.679Z,74.10
2022-11-25T23:47:18.451Z,65.47
2022-11-25T23:50:04.587Z,64.90
2022-11-25T23:52:51.200Z,93.37
2022-11-25T23:55:38.713Z,86.83
2022-11-25T23:58:24.416Z,91.37
